createdAt,value
2022-12-26T00:02:02.745Z,961.44
2022-12-26T00:04:51.679Z,961.46
2022-12-26T00:06:55.443Z,961.54
2022-12-26T00:09:21.754Z,961.50
2022-12-26T00:11:48.152Z,961.44
2022-12-26T00:14:14.458Z,961.42
2022-12-26T00:16:40.885Z,961.50
2022-12-26T00:19:07.129Z,961.57
2022-12-26T00:21:33.513Z,961.64
2022-12-26T00:23:59.828Z,961.70
2022-12-26T00:26:26.218Z,961.66
2022-12-26T00:28:52.530Z,961.70
2022-12-26T00:31:18.947Z,961.62
2022-12-26T00:33:45.210Z,961.63
2022-12-26T00:36:11.550Z,961.57
2022-12-26T00:38:37.905Z,961.54
2022-12-26T00:41:04.234Z,961.60
2022-12-26T00:43:30.634Z,961.69
2022-12-26T00:45:57.030Z,961.75
2022-12-26T00:48:23.319Z,961.81
2022-12-26T00:50:49.673Z,961.80
2022-12-26T00:53:16.027Z,961.69
2022-12-26T00:55:42.433Z,961.69
2022-12-26T00:58:08.811Z,961.66
2022-12-26T01:00:35.221Z,961.77
2022-12-26T01:03:01.592Z,961.74
2022-12-26T01:05:27.878Z,961.75
2022-12-26T01:08:22.469Z,961.76
2022-12-26T01:10:20.578Z,961.80
2022-12-26T01:12:46.902Z,961.84
2022-12-26T01:15:13.530Z,961.89
2022-12-26T01:17:39.827Z,961.97
2022-12-26T01:20:06.234Z,961.99
2022-12-26T01:22:32.545Z,962.06
2022-12-26T01:24:58.929Z,962.20
2022-12-26T01:27:25.283Z,962.16
2022-12-26T01:29:51.619Z,962.13
2022-12-26T01:32:17.991Z,962.09
2022-12-26T01:34:44.375Z,962.12
2022-12-26T01:37:10.733Z,962.08
2022-12-26T01:39:37.084Z,962.06
2022-12-26T01:42:03.473Z,962.07
2022-12-26T01:44:29.828Z,962.02
2022-12-26T01:46:56.178Z,961.92
2022-12-26T01:49:22.525Z,961.89
2022-12-26T01:51:48.916Z,961.95
2022-12-26T01:54:40.734Z,961.94
2022-12-26T01:56:41.621Z,961.96
2022-12-26T01:59:07.989Z,961.91
2022-12-26T02:01:34.451Z,961.86
2022-12-26T02:04:00.817Z,961.82
2022-12-26T02:06:27.042Z,961.88
2022-12-26T02:08:53.437Z,961.83
2022-12-26T02:11:19.813Z,961.82
2022-12-26T02:13:46.188Z,961.78
2022-12-26T02:16:12.596Z,961.65
2022-12-26T02:18:38.912Z,961.67
2022-12-26T02:21:05.290Z,961.69
2022-12-26T02:23:31.615Z,961.72
2022-12-26T02:25:57.964Z,961.67
2022-12-26T02:28:24.322Z,961.69
2022-12-26T02:30:50.670Z,961.72
2022-12-26T02:33:16.994Z,961.79
2022-12-26T02:35:43.383Z,961.70
2022-12-26T02:38:09.746Z,961.71
2022-12-26T02:40:36.084Z,961.79
2022-12-26T02:43:02.406Z,961.73
2022-12-26T02:45:28.788Z,961.70
2022-12-26T02:47:55.134Z,961.72
2022-12-26T02:50:21.526Z,961.78
2022-12-26T02:52:47.838Z,961.84
2022-12-26T02:55:14.269Z,961.74
2022-12-26T02:57:40.619Z,961.78
2022-12-26T03:00:06.988Z,961.73
2022-12-26T03:02:33.421Z,961.64
2022-12-26T03:04:59.648Z,961.70
2022-12-26T03:07:25.968Z,961.68
2022-12-26T03:09:52.352Z,961.64
2022-12-26T03:12:18.665Z,961.65
2022-12-26T03:14:45.011Z,961.72
2022-12-26T03:17:11.423Z,961.79
2022-12-26T03:19:37.726Z,961.71
2022-12-26T03:22:04.041Z,961.75
2022-12-26T03:24:30.429Z,961.77
2022-12-26T03:26:56.735Z,961.80
2022-12-26T03:29:23.081Z,961.89
2022-12-26T03:31:49.500Z,961.84
2022-12-26T03:34:15.843Z,961.90
2022-12-26T03:36:42.221Z,961.87
2022-12-26T03:39:08.627Z,961.92
2022-12-26T03:41:34.940Z,961.94
2022-12-26T03:44:01.283Z,961.98
2022-12-26T03:46:27.613Z,961.99
2022-12-26T03:48:53.944Z,962.11
2022-12-26T03:51:20.269Z,962.07
2022-12-26T03:53:46.615Z,962.11
2022-12-26T03:56:12.978Z,962.06
2022-12-26T03:58:39.306Z,962.01
2022-12-26T04:01:05.775Z,961.99
2022-12-26T04:03:32.142Z,962.04
2022-12-26T04:05:58.385Z,962.04
2022-12-26T04:08:24.760Z,962.02
2022-12-26T04:10:51.091Z,962.00
2022-12-26T04:13:17.466Z,962.01
2022-12-26T04:15:43.873Z,961.98
2022-12-26T04:18:10.145Z,961.90
2022-12-26T04:20:36.533Z,961.96
2022-12-26T04:23:02.893Z,961.97
2022-12-26T04:25:48.610Z,961.89
2022-12-26T04:27:55.701Z,961.80
2022-12-26T04:30:22.001Z,961.89
2022-12-26T04:32:48.355Z,961.91
2022-12-26T04:35:14.764Z,961.91
2022-12-26T04:37:41.146Z,961.95
2022-12-26T04:40:07.513Z,961.94
2022-12-26T04:42:33.854Z,962.02
2022-12-26T04:45:00.260Z,961.94
2022-12-26T04:47:26.558Z,961.99
2022-12-26T04:49:52.912Z,961.98
2022-12-26T04:52:19.252Z,962.01
2022-12-26T04:54:45.611Z,962.05
2022-12-26T04:57:11.998Z,962.05
2022-12-26T04:59:38.431Z,962.11
2022-12-26T05:02:04.773Z,962.08
2022-12-26T05:04:30.959Z,962.06
2022-12-26T05:06:57.311Z,962.05
2022-12-26T05:09:23.678Z,962.11
2022-12-26T05:11:50.008Z,962.10
2022-12-26T05:14:16.363Z,962.18
2022-12-26T05:16:42.702Z,962.20
2022-12-26T05:19:09.064Z,962.28
2022-12-26T05:21:35.442Z,962.27
2022-12-26T05:24:01.809Z,962.34
2022-12-26T05:26:28.133Z,962.37
2022-12-26T05:28:54.539Z,962.47
2022-12-26T05:31:20.963Z,962.40
2022-12-26T05:33:47.231Z,962.45
2022-12-26T05:36:13.626Z,962.42
2022-12-26T05:38:39.972Z,962.38
2022-12-26T05:41:06.349Z,962.37
2022-12-26T05:43:32.666Z,962.40
2022-12-26T05:45:59.007Z,962.39
2022-12-26T05:48:25.361Z,962.42
2022-12-26T05:50:51.717Z,962.46
2022-12-26T05:53:18.086Z,962.48
2022-12-26T05:55:44.475Z,962.52
2022-12-26T05:58:10.842Z,962.46
2022-12-26T06:00:37.150Z,962.47
2022-12-26T06:03:03.635Z,962.43
2022-12-26T06:05:30.006Z,962.41
2022-12-26T06:07:56.294Z,962.45
2022-12-26T06:10:22.646Z,962.50
2022-12-26T06:12:49.009Z,962.50
2022-12-26T06:15:15.325Z,962.50
2022-12-26T06:17:41.693Z,962.46
2022-12-26T06:20:08.076Z,962.43
2022-12-26T06:22:34.393Z,962.40
2022-12-26T06:25:00.761Z,962.47
2022-12-26T06:27:27.093Z,962.54
2022-12-26T06:29:53.486Z,962.63
2022-12-26T06:32:19.825Z,962.63
2022-12-26T06:34:46.159Z,962.70
2022-12-26T06:37:12.487Z,962.65
2022-12-26T06:39:38.888Z,962.70
2022-12-26T06:42:05.197Z,962.63
2022-12-26T06:44:31.575Z,962.57
2022-12-26T06:46:57.973Z,962.64
2022-12-26T06:49:30.429Z,962.75
2022-12-26T06:51:50.605Z,962.78
2022-12-26T06:54:16.973Z,962.77
2022-12-26T06:56:43.333Z,962.74
2022-12-26T06:59:09.716Z,962.68
2022-12-26T07:01:36.156Z,962.73
2022-12-26T07:04:02.445Z,962.74
2022-12-26T07:06:28.817Z,962.75
2022-12-26T07:08:55.134Z,962.78
2022-12-26T07:11:21.462Z,962.92
2022-12-26T07:13:47.845Z,962.90
2022-12-26T07:16:14.184Z,962.84
2022-12-26T07:18:40.631Z,962.95
2022-12-26T07:21:06.933Z,962.86
2022-12-26T07:23:33.330Z,962.93
2022-12-26T07:25:59.689Z,962.95
2022-12-26T07:28:26.020Z,962.94
2022-12-26T07:30:52.333Z,962.91
2022-12-26T07:33:18.735Z,962.94
2022-12-26T07:35:45.087Z,962.95
2022-12-26T07:38:11.426Z,962.88
2022-12-26T07:40:37.738Z,962.88
2022-12-26T07:43:04.137Z,962.89
2022-12-26T07:45:30.516Z,962.84
2022-12-26T07:47:56.856Z,962.87
2022-12-26T07:50:23.169Z,962.86
2022-12-26T07:52:49.597Z,962.85
2022-12-26T07:55:15.976Z,962.83
2022-12-26T07:57:49.924Z,962.82
2022-12-26T08:00:08.806Z,962.82
2022-12-26T08:02:35.250Z,962.84
2022-12-26T08:05:01.542Z,962.77
2022-12-26T08:07:27.909Z,962.76
2022-12-26T08:09:54.223Z,962.77
2022-12-26T08:12:20.607Z,962.74
2022-12-26T08:14:46.977Z,962.82
2022-12-26T08:17:13.448Z,962.72
2022-12-26T08:19:39.724Z,962.75
2022-12-26T08:22:06.074Z,962.77
2022-12-26T08:24:32.436Z,962.76
2022-12-26T08:26:58.768Z,962.80
2022-12-26T08:29:25.107Z,962.83
2022-12-26T08:31:51.477Z,962.88
2022-12-26T08:34:17.832Z,962.93
2022-12-26T08:36:44.174Z,962.89
2022-12-26T08:39:10.521Z,962.82
2022-12-26T08:41:36.897Z,962.73
2022-12-26T08:44:26.304Z,962.69
2022-12-26T08:46:29.618Z,962.71
2022-12-26T08:48:55.998Z,962.68
2022-12-26T08:51:22.344Z,962.64
2022-12-26T08:53:48.696Z,962.69
2022-12-26T08:56:15.029Z,962.67
2022-12-26T08:58:41.386Z,962.66
2022-12-26T09:01:07.904Z,962.55
2022-12-26T09:03:34.206Z,962.59
2022-12-26T09:06:05.645Z,962.61
2022-12-26T09:08:26.872Z,962.57
2022-12-26T09:10:53.375Z,962.58
2022-12-26T09:13:19.679Z,962.54
2022-12-26T09:15:46.055Z,962.51
2022-12-26T09:18:12.346Z,962.55
2022-12-26T09:20:38.743Z,962.54
2022-12-26T09:23:05.098Z,962.49
2022-12-26T09:25:31.437Z,962.49
2022-12-26T09:27:59.518Z,962.46
2022-12-26T09:30:24.149Z,962.46
2022-12-26T09:32:50.473Z,962.42
2022-12-26T09:35:16.929Z,962.36
2022-12-26T09:37:43.342Z,962.38
2022-12-26T09:40:09.714Z,962.32
2022-12-26T09:42:36.072Z,962.38
2022-12-26T09:45:02.474Z,962.36
2022-12-26T09:47:28.775Z,962.35
2022-12-26T09:49:55.166Z,962.39
2022-12-26T09:52:21.484Z,962.25
2022-12-26T09:54:47.869Z,962.27
2022-12-26T09:57:15.224Z,962.27
2022-12-26T09:59:40.618Z,962.18
2022-12-26T10:02:07.041Z,962.18
2022-12-26T10:04:33.336Z,962.12
2022-12-26T10:06:59.677Z,962.07
2022-12-26T10:09:26.101Z,962.03
2022-12-26T10:11:52.412Z,962.06
2022-12-26T10:14:21.603Z,961.97
2022-12-26T10:16:45.247Z,961.93
2022-12-26T10:19:11.619Z,961.92
2022-12-26T10:21:37.943Z,961.92
2022-12-26T10:24:04.283Z,961.85
2022-12-26T10:26:30.613Z,961.78
2022-12-26T10:28:56.947Z,961.77
2022-12-26T10:31:23.324Z,961.80
2022-12-26T10:33:49.624Z,961.74
2022-12-26T10:36:15.968Z,961.70
2022-12-26T10:38:42.313Z,961.67
2022-12-26T10:41:08.667Z,961.68
2022-12-26T10:43:35.091Z,961.71
2022-12-26T10:46:01.479Z,961.60
2022-12-26T10:48:27.817Z,961.60
2022-12-26T10:50:54.125Z,961.58
2022-12-26T10:53:20.472Z,961.54
2022-12-26T10:55:46.857Z,961.56
2022-12-26T10:58:13.234Z,961.52
2022-12-26T11:00:39.585Z,961.50
2022-12-26T11:03:06.100Z,961.48
2022-12-26T11:05:57.450Z,961.47
2022-12-26T11:07:58.697Z,961.40
2022-12-26T11:10:25.070Z,961.45
2022-12-26T11:12:51.439Z,961.44
2022-12-26T11:15:17.779Z,961.32
2022-12-26T11:17:44.162Z,961.27
2022-12-26T11:20:10.469Z,961.24
2022-12-26T11:22:36.891Z,961.20
2022-12-26T11:25:03.233Z,961.20
2022-12-26T11:27:29.637Z,961.19
2022-12-26T11:29:55.977Z,961.24
2022-12-26T11:32:22.384Z,961.17
2022-12-26T11:34:48.724Z,961.16
2022-12-26T11:37:15.061Z,961.10
2022-12-26T11:39:41.470Z,961.12
2022-12-26T11:42:07.821Z,961.08
2022-12-26T11:44:34.138Z,961.10
2022-12-26T11:47:00.646Z,961.02
2022-12-26T11:49:26.860Z,960.97
2022-12-26T11:51:58.810Z,960.99
2022-12-26T11:54:19.668Z,960.94
2022-12-26T11:56:46.003Z,960.97
2022-12-26T11:59:12.338Z,960.91
2022-12-26T12:01:38.876Z,960.85
2022-12-26T12:04:05.144Z,960.79
2022-12-26T12:06:31.585Z,960.76
2022-12-26T12:09:03.824Z,960.74
2022-12-26T12:11:24.313Z,960.79
2022-12-26T12:13:50.665Z,960.67
2022-12-26T12:16:17.093Z,960.73
2022-12-26T12:18:43.371Z,960.73
2022-12-26T12:21:09.721Z,960.70
2022-12-26T12:23:36.052Z,960.69
2022-12-26T12:26:02.413Z,960.71
2022-12-26T12:28:28.770Z,960.64
2022-12-26T12:30:55.176Z,960.61
2022-12-26T12:33:21.486Z,960.67
2022-12-26T12:35:47.865Z,960.54
2022-12-26T12:38:14.181Z,960.61
2022-12-26T12:40:40.568Z,960.68
2022-12-26T12:43:06.951Z,960.62
2022-12-26T12:45:33.294Z,960.66
2022-12-26T12:47:59.657Z,960.60
2022-12-26T12:50:26.008Z,960.60
2022-12-26T12:52:52.397Z,960.57
2022-12-26T12:55:18.814Z,960.63
2022-12-26T12:57:45.138Z,960.64
2022-12-26T13:00:11.578Z,960.60
2022-12-26T13:02:38.009Z,960.60
2022-12-26T13:05:04.205Z,960.61
2022-12-26T13:07:30.585Z,960.59
2022-12-26T13:09:56.912Z,960.51
2022-12-26T13:12:23.325Z,960.52
2022-12-26T13:14:49.634Z,960.55
2022-12-26T13:17:16.004Z,960.55
2022-12-26T13:19:42.327Z,960.51
2022-12-26T13:22:08.704Z,960.60
2022-12-26T13:24:35.829Z,960.56
2022-12-26T13:27:02.151Z,960.60
2022-12-26T13:29:28.522Z,960.58
2022-12-26T13:31:54.888Z,960.51
2022-12-26T13:34:21.225Z,960.45
2022-12-26T13:36:47.611Z,960.58
2022-12-26T13:39:14.026Z,960.58
2022-12-26T13:41:40.428Z,960.66
2022-12-26T13:44:06.773Z,960.57
2022-12-26T13:46:33.107Z,960.58
2022-12-26T13:48:59.487Z,960.56
2022-12-26T13:51:25.817Z,960.53
2022-12-26T13:53:52.181Z,960.52
2022-12-26T13:56:18.550Z,960.56
2022-12-26T13:58:44.924Z,960.53
2022-12-26T14:01:11.538Z,960.50
2022-12-26T14:03:37.794Z,960.54
2022-12-26T14:06:04.025Z,960.47
2022-12-26T14:08:30.354Z,960.48
2022-12-26T14:10:56.741Z,960.47
2022-12-26T14:13:23.118Z,960.50
2022-12-26T14:15:49.459Z,960.52
2022-12-26T14:18:15.817Z,960.48
2022-12-26T14:20:42.204Z,960.48
2022-12-26T14:23:08.560Z,960.47
2022-12-26T14:25:34.951Z,960.51
2022-12-26T14:28:01.272Z,960.58
2022-12-26T14:30:27.645Z,960.54
2022-12-26T14:32:53.963Z,960.55
2022-12-26T14:35:20.343Z,960.48
2022-12-26T14:37:46.708Z,960.52
2022-12-26T14:40:13.143Z,960.56
2022-12-26T14:42:39.625Z,960.56
2022-12-26T14:45:06.007Z,960.58
2022-12-26T14:47:32.334Z,960.54
2022-12-26T14:49:58.675Z,960.55
2022-12-26T14:52:25.028Z,960.58
2022-12-26T14:54:51.761Z,960.58
2022-12-26T14:57:17.932Z,960.57
2022-12-26T14:59:44.315Z,960.56
2022-12-26T15:02:10.827Z,960.61
2022-12-26T15:04:37.060Z,960.63
2022-12-26T15:07:03.381Z,960.57
2022-12-26T15:09:29.827Z,960.53
2022-12-26T15:11:56.130Z,960.47
2022-12-26T15:14:22.473Z,960.51
2022-12-26T15:16:48.794Z,960.45
2022-12-26T15:19:15.141Z,960.41
2022-12-26T15:21:41.494Z,960.31
2022-12-26T15:24:07.881Z,960.31
2022-12-26T15:26:34.239Z,960.37
2022-12-26T15:29:00.577Z,960.31
2022-12-26T15:31:26.962Z,960.36
2022-12-26T15:33:53.336Z,960.32
2022-12-26T15:36:19.684Z,960.38
2022-12-26T15:38:46.063Z,960.48
2022-12-26T15:41:12.409Z,960.51
2022-12-26T15:43:38.772Z,960.48
2022-12-26T15:46:05.107Z,960.43
2022-12-26T15:48:31.474Z,960.48
2022-12-26T15:50:57.830Z,960.48
2022-12-26T15:53:24.181Z,960.42
2022-12-26T15:55:50.513Z,960.37
2022-12-26T15:58:16.913Z,960.37
2022-12-26T16:00:43.264Z,960.40
2022-12-26T16:03:09.667Z,960.45
2022-12-26T16:05:35.999Z,960.47
2022-12-26T16:08:02.339Z,960.53
2022-12-26T16:10:28.713Z,960.61
2022-12-26T16:12:55.096Z,960.58
2022-12-26T16:15:21.416Z,960.62
2022-12-26T16:17:47.802Z,960.57
2022-12-26T16:20:18.605Z,960.63
2022-12-26T16:22:40.468Z,960.61
2022-12-26T16:25:06.822Z,960.58
2022-12-26T16:27:33.166Z,960.58
2022-12-26T16:29:59.531Z,960.66
2022-12-26T16:32:25.906Z,960.62
2022-12-26T16:34:52.257Z,960.69
2022-12-26T16:37:18.636Z,960.63
2022-12-26T16:39:44.967Z,960.55
2022-12-26T16:42:11.356Z,960.53
2022-12-26T16:44:37.699Z,960.58
2022-12-26T16:47:04.215Z,960.66
2022-12-26T16:49:30.954Z,960.79
2022-12-26T16:51:57.298Z,960.85
2022-12-26T16:54:23.669Z,960.78
2022-12-26T16:56:50.036Z,960.75
2022-12-26T16:59:17.874Z,960.76
2022-12-26T17:01:43.284Z,960.87
2022-12-26T17:04:09.937Z,960.87
2022-12-26T17:06:36.279Z,960.85
2022-12-26T17:09:02.733Z,960.88
2022-12-26T17:11:29.127Z,960.86
2022-12-26T17:13:55.463Z,960.91
2022-12-26T17:16:21.915Z,960.94
2022-12-26T17:18:48.181Z,960.99
2022-12-26T17:21:14.566Z,960.90
2022-12-26T17:23:40.965Z,961.04
2022-12-26T17:26:07.343Z,960.98
2022-12-26T17:28:33.670Z,960.99
2022-12-26T17:31:00.172Z,960.97
2022-12-26T17:33:26.476Z,960.92
2022-12-26T17:38:19.153Z,960.89
2022-12-26T17:40:45.535Z,960.96
2022-12-26T17:43:11.873Z,960.95
2022-12-26T17:45:44.556Z,960.92
2022-12-26T17:48:04.583Z,960.88
2022-12-26T17:50:30.951Z,960.82
2022-12-26T17:52:57.438Z,960.79
2022-12-26T17:55:23.801Z,960.83
2022-12-26T17:57:50.163Z,960.72
2022-12-26T18:00:16.545Z,960.72
2022-12-26T18:02:43.046Z,960.73
2022-12-26T18:05:09.296Z,960.70
2022-12-26T18:07:35.664Z,960.69
2022-12-26T18:10:02.030Z,960.64
2022-12-26T18:12:28.333Z,960.56
2022-12-26T18:15:01.131Z,960.57
2022-12-26T18:17:21.054Z,960.64
2022-12-26T18:19:47.570Z,960.57
2022-12-26T18:22:13.764Z,960.65
2022-12-26T18:24:40.142Z,960.57
2022-12-26T18:27:06.551Z,960.65
2022-12-26T18:29:32.933Z,960.61
2022-12-26T18:31:59.315Z,960.51
2022-12-26T18:34:25.679Z,960.54
2022-12-26T18:36:52.037Z,960.53
2022-12-26T18:39:18.470Z,960.60
2022-12-26T18:41:44.756Z,960.60
2022-12-26T18:44:11.213Z,960.57
2022-12-26T18:46:37.569Z,960.52
2022-12-26T18:49:03.902Z,960.52
2022-12-26T18:51:30.332Z,960.48
2022-12-26T18:53:56.704Z,960.55
2022-12-26T18:56:23.022Z,960.53
2022-12-26T18:58:55.553Z,960.46
2022-12-26T19:01:15.819Z,960.48
2022-12-26T19:03:42.159Z,960.50
2022-12-26T19:06:08.464Z,960.51
2022-12-26T19:08:34.813Z,960.49
2022-12-26T19:11:01.155Z,960.46
2022-12-26T19:13:27.523Z,960.47
2022-12-26T19:15:53.974Z,960.45
2022-12-26T19:18:20.345Z,960.46
2022-12-26T19:20:46.712Z,960.45
2022-12-26T19:23:13.040Z,960.48
2022-12-26T19:25:39.420Z,960.52
2022-12-26T19:28:05.758Z,960.53
2022-12-26T19:30:36.871Z,960.47
2022-12-26T19:32:58.453Z,960.48
2022-12-26T19:35:24.775Z,960.47
2022-12-26T19:37:51.115Z,960.44
2022-12-26T19:40:24.533Z,960.46
2022-12-26T19:42:43.779Z,960.44
2022-12-26T19:45:10.101Z,960.39
2022-12-26T19:47:36.499Z,960.47
2022-12-26T19:50:02.836Z,960.34
2022-12-26T19:52:29.220Z,960.46
2022-12-26T19:54:55.541Z,960.48
2022-12-26T19:57:21.913Z,960.35
2022-12-26T19:59:48.338Z,960.42
2022-12-26T20:02:14.769Z,960.37
2022-12-26T20:04:41.038Z,960.45
2022-12-26T20:07:07.370Z,960.48
2022-12-26T20:09:33.776Z,960.51
2022-12-26T20:12:00.173Z,960.55
2022-12-26T20:14:26.490Z,960.55
2022-12-26T20:17:09.196Z,960.60
2022-12-26T20:19:19.986Z,960.66
2022-12-26T20:21:45.745Z,960.63
2022-12-26T20:24:12.120Z,960.52
2022-12-26T20:26:38.491Z,960.50
2022-12-26T20:29:04.808Z,960.49
2022-12-26T20:31:31.175Z,960.53
2022-12-26T20:33:57.510Z,960.54
2022-12-26T20:36:23.886Z,960.46
2022-12-26T20:38:50.242Z,960.48
2022-12-26T20:41:16.647Z,960.48
2022-12-26T20:43:43.006Z,960.44
2022-12-26T20:46:09.379Z,960.42
2022-12-26T20:48:35.721Z,960.44
2022-12-26T20:51:02.110Z,960.40
2022-12-26T20:53:28.420Z,960.40
2022-12-26T20:55:54.780Z,960.43
2022-12-26T20:58:25.302Z,960.42
2022-12-26T21:00:47.453Z,960.35
2022-12-26T21:03:13.943Z,960.35
2022-12-26T21:05:40.268Z,960.40
2022-12-26T21:08:06.629Z,960.43
2022-12-26T21:10:32.970Z,960.47
2022-12-26T21:12:59.337Z,960.36
2022-12-26T21:15:25.682Z,960.29
2022-12-26T21:17:52.045Z,960.35
2022-12-26T21:20:18.430Z,960.45
2022-12-26T21:22:44.734Z,960.46
2022-12-26T21:25:11.147Z,960.53
2022-12-26T21:27:40.291Z,960.45
2022-12-26T21:30:03.804Z,960.45
2022-12-26T21:32:30.124Z,960.45
2022-12-26T21:34:56.551Z,960.41
2022-12-26T21:37:22.876Z,960.40
2022-12-26T21:39:49.310Z,960.41
2022-12-26T21:42:15.631Z,960.39
2022-12-26T21:44:42.029Z,960.37
2022-12-26T21:47:08.434Z,960.46
2022-12-26T21:49:34.716Z,960.45
2022-12-26T21:52:01.026Z,960.46
2022-12-26T21:54:27.402Z,960.43
2022-12-26T21:56:53.704Z,960.43
2022-12-26T21:59:20.065Z,960.43
2022-12-26T22:01:46.499Z,960.39
2022-12-26T22:04:12.744Z,960.42
2022-12-26T22:06:39.102Z,960.42
2022-12-26T22:09:05.485Z,960.38
2022-12-26T22:11:31.799Z,960.38
2022-12-26T22:13:58.176Z,960.39
2022-12-26T22:16:24.586Z,960.42
2022-12-26T22:18:50.947Z,960.39
2022-12-26T22:21:17.287Z,960.42
2022-12-26T22:23:43.664Z,960.39
2022-12-26T22:26:10.021Z,960.43
2022-12-26T22:28:36.411Z,960.33
2022-12-26T22:31:02.749Z,960.35
2022-12-26T22:33:29.096Z,960.31
2022-12-26T22:35:55.436Z,960.36
2022-12-26T22:38:21.852Z,960.41
2022-12-26T22:40:48.209Z,960.39
2022-12-26T22:43:14.550Z,960.39
2022-12-26T22:45:40.912Z,960.38
2022-12-26T22:48:07.288Z,960.35
2022-12-26T22:50:33.635Z,960.30
2022-12-26T22:53:00.018Z,960.26
2022-12-26T22:55:26.334Z,960.37
2022-12-26T22:57:53.785Z,960.38
2022-12-26T23:00:19.139Z,960.34
2022-12-26T23:02:45.538Z,960.35
2022-12-26T23:05:11.807Z,960.38
2022-12-26T23:07:38.125Z,960.34
2022-12-26T23:10:04.509Z,960.39
2022-12-26T23:12:30.879Z,960.34
2022-12-26T23:14:57.245Z,960.37
2022-12-26T23:17:23.617Z,960.37
2022-12-26T23:19:49.982Z,960.36
2022-12-26T23:22:16.345Z,960.33
2022-12-26T23:24:42.770Z,960.32
2022-12-26T23:27:11.987Z,960.24
2022-12-26T23:29:35.355Z,960.21
2022-12-26T23:32:01.675Z,960.21
2022-12-26T23:34:28.070Z,960.17
2022-12-26T23:36:54.431Z,960.14
2022-12-26T23:39:20.820Z,960.15
2022-12-26T23:41:47.165Z,960.12
2022-12-26T23:44:13.552Z,960.05
2022-12-26T23:46:40.086Z,960.01
2022-12-26T23:49:06.347Z,959.97
2022-12-26T23:51:32.795Z,960.04
2022-12-26T23:53:59.115Z,959.93
2022-12-26T23:56:25.471Z,959.97
2022-12-26T23:58:51.890Z,959.95
